sensor_id;sensor_type;location;lat;lon;timestamp;P1;durP1;ratioP1;P2;durP2;ratioP2
75810;SDS011;64449;50.016;19.954;2023-05-07T00:00:18;15.30;;;10.10;;
75810;SDS011;64449;50.016;19.954;2023-05-07T00:02:44;16.10;;;10.60;;
75810;SDS011;64449;50.016;19.954;2023-05-07T00:05:10;13.50;;;9.40;;
75810;SDS011;64449;50.016;19.954;2023-05-07T00:07:36;14.00;;;9.30;;
75810;SDS011;64449;50.016;19.954;2023-05-07T00:10:02;15.00;;;9.90;;
75810;SDS011;64449;50.016;19.954;2023-05-07T00:12:28;14.30;;;9.90;;
75810;SDS011;64449;50.016;19.954;2023-05-07T00:14:56;16.20;;;10.30;;
75810;SDS011;64449;50.016;19.954;2023-05-07T00:17:22;14.60;;;9.70;;
75810;SDS011;64449;50.016;19.954;2023-05-07T00:19:48;16.70;;;11.30;;
75810;SDS011;64449;50.016;19.954;2023-05-07T00:22:13;15.80;;;11.00;;
75810;SDS011;64449;50.016;19.954;2023-05-07T00:24:39;16.20;;;10.00;;
75810;SDS011;64449;50.016;19.954;2023-05-07T00:27:04;16.40;;;10.70;;
75810;SDS011;64449;50.016;19.954;2023-05-07T00:29:30;18.90;;;10.30;;
75810;SDS011;64449;50.016;19.954;2023-05-07T00:31:56;16.50;;;10.70;;
75810;SDS011;64449;50.016;19.954;2023-05-07T00:34:21;15.10;;;9.70;;
75810;SDS011;64449;50.016;19.954;2023-05-07T00:36:47;19.50;;;12.10;;
75810;SDS011;64449;50.016;19.954;2023-05-07T00:39:12;18.00;;;11.40;;
75810;SDS011;64449;50.016;19.954;2023-05-07T00:41:38;20.30;;;10.10;;
75810;SDS011;64449;50.016;19.954;2023-05-07T00:44:03;15.40;;;10.60;;
75810;SDS011;64449;50.016;19.954;2023-05-07T00:46:29;17.00;;;10.80;;
75810;SDS011;64449;50.016;19.954;2023-05-07T00:48:56;15.50;;;10.00;;
75810;SDS011;64449;50.016;19.954;2023-05-07T00:51:23;17.90;;;10.70;;
75810;SDS011;64449;50.016;19.954;2023-05-07T00:53:49;14.50;;;8.80;;
75810;SDS011;64449;50.016;19.954;2023-05-07T00:56:15;16.40;;;10.80;;
75810;SDS011;64449;50.016;19.954;2023-05-07T00:58:41;14.10;;;9.60;;
75810;SDS011;64449;50.016;19.954;2023-05-07T01:01:06;15.20;;;9.50;;
75810;SDS011;64449;50.016;19.954;2023-05-07T01:03:32;13.70;;;8.00;;
75810;SDS011;64449;50.016;19.954;2023-05-07T01:05:58;10.90;;;7.10;;
75810;SDS011;64449;50.016;19.954;2023-05-07T01:08:25;14.10;;;7.80;;
75810;SDS011;64449;50.016;19.954;2023-05-07T01:10:53;12.00;;;7.60;;
75810;SDS011;64449;50.016;19.954;2023-05-07T01:13:20;11.10;;;7.10;;
75810;SDS011;64449;50.016;19.954;2023-05-07T01:15:46;14.70;;;8.40;;
75810;SDS011;64449;50.016;19.954;2023-05-07T01:18:11;13.50;;;8.20;;
75810;SDS011;64449;50.016;19.954;2023-05-07T01:20:37;12.00;;;7.30;;
75810;SDS011;64449;50.016;19.954;2023-05-07T01:23:02;13.10;;;8.40;;
75810;SDS011;64449;50.016;19.954;2023-05-07T01:25:28;12.40;;;7.20;;
75810;SDS011;64449;50.016;19.954;2023-05-07T01:27:54;13.00;;;8.00;;
75810;SDS011;64449;50.016;19.954;2023-05-07T01:30:20;14.20;;;7.90;;
75810;SDS011;64449;50.016;19.954;2023-05-07T01:32:51;11.40;;;7.30;;
75810;SDS011;64449;50.016;19.954;2023-05-07T01:35:22;12.10;;;7.40;;
75810;SDS011;64449;50.016;19.954;2023-05-07T01:37:51;12.50;;;7.80;;
75810;SDS011;64449;50.016;19.954;2023-05-07T01:40:18;13.80;;;8.40;;
75810;SDS011;64449;50.016;19.954;2023-05-07T01:42:44;12.70;;;7.70;;
75810;SDS011;64449;50.016;19.954;2023-05-07T01:45:11;12.30;;;7.80;;
75810;SDS011;64449;50.016;19.954;2023-05-07T01:47:37;13.00;;;8.70;;
75810;SDS011;64449;50.016;19.954;2023-05-07T01:50:03;16.50;;;7.60;;
75810;SDS011;64449;50.016;19.954;2023-05-07T01:52:30;13.40;;;7.30;;
75810;SDS011;64449;50.016;19.954;2023-05-07T01:54:56;13.30;;;8.50;;
75810;SDS011;64449;50.016;19.954;2023-05-07T01:57:21;11.70;;;7.00;;
75810;SDS011;64449;50.016;19.954;2023-05-07T01:59:47;14.70;;;8.20;;
75810;SDS011;64449;50.016;19.954;2023-05-07T02:02:12;13.20;;;8.10;;
75810;SDS011;64449;50.016;19.954;2023-05-07T02:04:37;19.20;;;9.70;;
75810;SDS011;64449;50.016;19.954;2023-05-07T02:07:03;15.90;;;9.00;;
75810;SDS011;64449;50.016;19.954;2023-05-07T02:09:29;14.90;;;8.40;;
75810;SDS011;64449;50.016;19.954;2023-05-07T02:11:55;15.80;;;8.50;;
75810;SDS011;64449;50.016;19.954;2023-05-07T02:14:20;14.50;;;8.70;;
75810;SDS011;64449;50.016;19.954;2023-05-07T02:16:45;14.40;;;8.10;;
75810;SDS011;64449;50.016;19.954;2023-05-07T02:19:11;17.20;;;9.70;;
75810;SDS011;64449;50.016;19.954;2023-05-07T02:21:36;16.60;;;10.70;;
75810;SDS011;64449;50.016;19.954;2023-05-07T02:24:02;15.40;;;9.60;;
75810;SDS011;64449;50.016;19.954;2023-05-07T02:26:27;19.30;;;9.50;;
75810;SDS011;64449;50.016;19.954;2023-05-07T02:28:52;17.70;;;9.40;;
75810;SDS011;64449;50.016;19.954;2023-05-07T02:31:18;17.10;;;8.80;;
75810;SDS011;64449;50.016;19.954;2023-05-07T02:33:44;15.90;;;9.50;;
75810;SDS011;64449;50.016;19.954;2023-05-07T02:36:10;14.60;;;8.00;;
75810;SDS011;64449;50.016;19.954;2023-05-07T02:38:37;11.90;;;7.70;;
75810;SDS011;64449;50.016;19.954;2023-05-07T02:41:02;12.10;;;7.80;;
75810;SDS011;64449;50.016;19.954;2023-05-07T02:43:28;13.80;;;7.60;;
75810;SDS011;64449;50.016;19.954;2023-05-07T02:46:00;16.30;;;7.40;;
75810;SDS011;64449;50.016;19.954;2023-05-07T02:48:29;13.90;;;8.40;;
75810;SDS011;64449;50.016;19.954;2023-05-07T02:50:54;13.90;;;7.50;;
75810;SDS011;64449;50.016;19.954;2023-05-07T02:53:20;12.60;;;7.00;;
75810;SDS011;64449;50.016;19.954;2023-05-07T02:55:46;10.20;;;6.10;;
75810;SDS011;64449;50.016;19.954;2023-05-07T02:58:11;14.40;;;7.40;;
75810;SDS011;64449;50.016;19.954;2023-05-07T03:00:36;10.80;;;5.90;;
75810;SDS011;64449;50.016;19.954;2023-05-07T03:03:02;10.30;;;6.30;;
75810;SDS011;64449;50.016;19.954;2023-05-07T03:05:27;13.00;;;6.50;;
75810;SDS011;64449;50.016;19.954;2023-05-07T03:07:53;9.40;;;6.00;;
75810;SDS011;64449;50.016;19.954;2023-05-07T03:10:18;10.20;;;5.90;;
75810;SDS011;64449;50.016;19.954;2023-05-07T03:12:43;9.50;;;5.60;;
75810;SDS011;64449;50.016;19.954;2023-05-07T03:15:09;10.70;;;5.30;;
75810;SDS011;64449;50.016;19.954;2023-05-07T03:17:36;8.00;;;5.10;;
75810;SDS011;64449;50.016;19.954;2023-05-07T03:20:01;8.40;;;4.70;;
75810;SDS011;64449;50.016;19.954;2023-05-07T03:22:27;9.40;;;4.80;;
75810;SDS011;64449;50.016;19.954;2023-05-07T03:24:53;8.50;;;4.10;;
75810;SDS011;64449;50.016;19.954;2023-05-07T03:27:18;8.30;;;4.60;;
75810;SDS011;64449;50.016;19.954;2023-05-07T03:29:43;7.80;;;4.10;;
75810;SDS011;64449;50.016;19.954;2023-05-07T03:32:09;8.30;;;5.10;;
75810;SDS011;64449;50.016;19.954;2023-05-07T03:34:34;7.20;;;4.10;;
75810;SDS011;64449;50.016;19.954;2023-05-07T03:37:00;11.80;;;4.80;;
75810;SDS011;64449;50.016;19.954;2023-05-07T03:39:25;7.30;;;4.20;;
75810;SDS011;64449;50.016;19.954;2023-05-07T03:41:50;9.80;;;4.80;;
75810;SDS011;64449;50.016;19.954;2023-05-07T03:44:16;6.60;;;4.40;;
75810;SDS011;64449;50.016;19.954;2023-05-07T03:46:41;6.40;;;3.70;;
75810;SDS011;64449;50.016;19.954;2023-05-07T03:49:07;7.20;;;3.80;;
75810;SDS011;64449;50.016;19.954;2023-05-07T03:51:32;6.50;;;3.40;;
75810;SDS011;64449;50.016;19.954;2023-05-07T03:53:57;4.60;;;3.20;;
75810;SDS011;64449;50.016;19.954;2023-05-07T03:56:23;4.40;;;2.40;;
75810;SDS011;64449;50.016;19.954;2023-05-07T03:58:51;3.90;;;2.40;;
75810;SDS011;64449;50.016;19.954;2023-05-07T04:01:17;3.70;;;2.20;;
75810;SDS011;64449;50.016;19.954;2023-05-07T04:03:42;3.30;;;1.60;;
75810;SDS011;64449;50.016;19.954;2023-05-07T04:06:08;3.50;;;1.70;;
75810;SDS011;64449;50.016;19.954;2023-05-07T04:08:33;3.50;;;1.90;;
75810;SDS011;64449;50.016;19.954;2023-05-07T04:10:58;3.20;;;1.80;;
75810;SDS011;64449;50.016;19.954;2023-05-07T04:13:24;3.40;;;2.00;;
75810;SDS011;64449;50.016;19.954;2023-05-07T04:15:54;6.70;;;1.90;;
75810;SDS011;64449;50.016;19.954;2023-05-07T04:18:20;3.30;;;1.90;;
75810;SDS011;64449;50.016;19.954;2023-05-07T04:20:47;3.90;;;1.80;;
75810;SDS011;64449;50.016;19.954;2023-05-07T04:23:13;5.60;;;1.80;;
75810;SDS011;64449;50.016;19.954;2023-05-07T04:25:38;3.50;;;1.60;;
75810;SDS011;64449;50.016;19.954;2023-05-07T04:28:04;4.50;;;2.70;;
75810;SDS011;64449;50.016;19.954;2023-05-07T04:30:29;3.30;;;1.80;;
75810;SDS011;64449;50.016;19.954;2023-05-07T04:32:55;3.50;;;1.60;;
75810;SDS011;64449;50.016;19.954;2023-05-07T04:35:21;3.20;;;1.80;;
75810;SDS011;64449;50.016;19.954;2023-05-07T04:37:47;3.70;;;1.60;;
75810;SDS011;64449;50.016;19.954;2023-05-07T04:40:12;3.60;;;1.60;;
75810;SDS011;64449;50.016;19.954;2023-05-07T04:42:38;3.70;;;1.80;;
75810;SDS011;64449;50.016;19.954;2023-05-07T04:45:04;3.70;;;1.80;;
75810;SDS011;64449;50.016;19.954;2023-05-07T04:47:30;3.50;;;1.70;;
75810;SDS011;64449;50.016;19.954;2023-05-07T04:49:55;3.30;;;1.80;;
75810;SDS011;64449;50.016;19.954;2023-05-07T04:52:21;3.70;;;2.00;;
75810;SDS011;64449;50.016;19.954;2023-05-07T04:54:46;2.90;;;1.80;;
75810;SDS011;64449;50.016;19.954;2023-05-07T04:57:11;4.20;;;1.90;;
75810;SDS011;64449;50.016;19.954;2023-05-07T04:59:37;3.10;;;1.90;;
75810;SDS011;64449;50.016;19.954;2023-05-07T05:02:02;3.80;;;2.10;;
75810;SDS011;64449;50.016;19.954;2023-05-07T05:04:29;4.20;;;2.30;;
75810;SDS011;64449;50.016;19.954;2023-05-07T05:06:55;4.50;;;2.20;;
75810;SDS011;64449;50.016;19.954;2023-05-07T05:09:20;4.10;;;2.30;;
75810;SDS011;64449;50.016;19.954;2023-05-07T05:11:46;3.20;;;1.80;;
75810;SDS011;64449;50.016;19.954;2023-05-07T05:14:11;3.90;;;2.30;;
75810;SDS011;64449;50.016;19.954;2023-05-07T05:16:36;5.10;;;2.50;;
75810;SDS011;64449;50.016;19.954;2023-05-07T05:19:02;4.40;;;2.30;;
75810;SDS011;64449;50.016;19.954;2023-05-07T05:21:28;3.10;;;1.90;;
75810;SDS011;64449;50.016;19.954;2023-05-07T05:23:53;3.90;;;2.00;;
75810;SDS011;64449;50.016;19.954;2023-05-07T05:26:19;4.10;;;2.00;;
75810;SDS011;64449;50.016;19.954;2023-05-07T05:28:46;3.50;;;1.70;;
75810;SDS011;64449;50.016;19.954;2023-05-07T05:31:12;3.10;;;1.60;;
75810;SDS011;64449;50.016;19.954;2023-05-07T05:33:37;3.20;;;1.80;;
75810;SDS011;64449;50.016;19.954;2023-05-07T05:36:03;4.00;;;2.10;;
75810;SDS011;64449;50.016;19.954;2023-05-07T05:38:29;3.80;;;1.80;;
75810;SDS011;64449;50.016;19.954;2023-05-07T05:40:54;2.40;;;1.50;;
75810;SDS011;64449;50.016;19.954;2023-05-07T05:43:19;5.60;;;1.60;;
75810;SDS011;64449;50.016;19.954;2023-05-07T05:45:45;3.00;;;1.70;;
75810;SDS011;64449;50.016;19.954;2023-05-07T05:48:10;2.90;;;1.50;;
75810;SDS011;64449;50.016;19.954;2023-05-07T05:50:36;4.00;;;1.90;;
75810;SDS011;64449;50.016;19.954;2023-05-07T05:53:02;3.20;;;1.70;;
75810;SDS011;64449;50.016;19.954;2023-05-07T05:55:27;3.10;;;1.80;;
75810;SDS011;64449;50.016;19.954;2023-05-07T05:57:53;4.40;;;1.80;;
75810;SDS011;64449;50.016;19.954;2023-05-07T06:00:18;6.40;;;3.40;;
75810;SDS011;64449;50.016;19.954;2023-05-07T06:02:44;16.50;;;9.70;;
75810;SDS011;64449;50.016;19.954;2023-05-07T06:05:09;10.00;;;6.90;;
75810;SDS011;64449;50.016;19.954;2023-05-07T06:07:35;16.10;;;8.60;;
75810;SDS011;64449;50.016;19.954;2023-05-07T06:10:03;5.30;;;3.00;;
75810;SDS011;64449;50.016;19.954;2023-05-07T06:12:29;8.90;;;5.20;;
75810;SDS011;64449;50.016;19.954;2023-05-07T06:14:54;8.80;;;3.60;;
75810;SDS011;64449;50.016;19.954;2023-05-07T06:17:20;7.10;;;3.40;;
75810;SDS011;64449;50.016;19.954;2023-05-07T06:19:45;4.10;;;2.00;;
75810;SDS011;64449;50.016;19.954;2023-05-07T06:22:10;6.70;;;3.70;;
75810;SDS011;64449;50.016;19.954;2023-05-07T06:24:36;11.60;;;6.20;;
75810;SDS011;64449;50.016;19.954;2023-05-07T06:27:01;11.20;;;6.40;;
75810;SDS011;64449;50.016;19.954;2023-05-07T06:29:27;15.50;;;8.90;;
75810;SDS011;64449;50.016;19.954;2023-05-07T06:31:53;7.60;;;4.30;;
75810;SDS011;64449;50.016;19.954;2023-05-07T06:34:18;11.20;;;5.90;;
75810;SDS011;64449;50.016;19.954;2023-05-07T06:36:44;8.10;;;4.30;;
75810;SDS011;64449;50.016;19.954;2023-05-07T06:39:09;6.60;;;3.90;;
75810;SDS011;64449;50.016;19.954;2023-05-07T06:41:35;9.70;;;5.00;;
75810;SDS011;64449;50.016;19.954;2023-05-07T06:44:01;4.90;;;2.70;;
75810;SDS011;64449;50.016;19.954;2023-05-07T06:46:27;7.60;;;4.30;;
75810;SDS011;64449;50.016;19.954;2023-05-07T06:48:54;5.20;;;3.00;;
75810;SDS011;64449;50.016;19.954;2023-05-07T06:51:19;6.00;;;3.10;;
75810;SDS011;64449;50.016;19.954;2023-05-07T06:53:44;4.30;;;2.60;;
75810;SDS011;64449;50.016;19.954;2023-05-07T06:56:10;4.50;;;1.90;;
75810;SDS011;64449;50.016;19.954;2023-05-07T06:58:35;5.20;;;2.70;;
75810;SDS011;64449;50.016;19.954;2023-05-07T07:01:01;4.40;;;2.30;;
75810;SDS011;64449;50.016;19.954;2023-05-07T07:03:26;3.30;;;2.00;;
75810;SDS011;64449;50.016;19.954;2023-05-07T07:05:52;6.90;;;4.00;;
75810;SDS011;64449;50.016;19.954;2023-05-07T07:08:18;9.40;;;5.50;;
75810;SDS011;64449;50.016;19.954;2023-05-07T07:10:46;5.20;;;3.00;;
75810;SDS011;64449;50.016;19.954;2023-05-07T07:13:12;6.10;;;3.60;;
75810;SDS011;64449;50.016;19.954;2023-05-07T07:15:37;4.90;;;2.40;;
75810;SDS011;64449;50.016;19.954;2023-05-07T07:18:03;8.30;;;5.00;;
75810;SDS011;64449;50.016;19.954;2023-05-07T07:20:29;5.80;;;3.30;;
75810;SDS011;64449;50.016;19.954;2023-05-07T07:22:54;5.30;;;2.70;;
75810;SDS011;64449;50.016;19.954;2023-05-07T07:25:20;4.30;;;2.20;;
75810;SDS011;64449;50.016;19.954;2023-05-07T07:27:45;5.60;;;2.70;;
75810;SDS011;64449;50.016;19.954;2023-05-07T07:30:10;5.00;;;2.90;;
75810;SDS011;64449;50.016;19.954;2023-05-07T07:32:37;3.70;;;1.80;;
75810;SDS011;64449;50.016;19.954;2023-05-07T07:35:02;5.20;;;2.70;;
75810;SDS011;64449;50.016;19.954;2023-05-07T07:37:28;4.30;;;1.80;;
75810;SDS011;64449;50.016;19.954;2023-05-07T07:39:54;4.20;;;2.10;;
75810;SDS011;64449;50.016;19.954;2023-05-07T07:42:20;3.30;;;1.80;;
75810;SDS011;64449;50.016;19.954;2023-05-07T07:44:45;4.00;;;2.20;;
75810;SDS011;64449;50.016;19.954;2023-05-07T07:47:11;3.30;;;1.40;;
75810;SDS011;64449;50.016;19.954;2023-05-07T07:49:36;2.40;;;1.40;;
75810;SDS011;64449;50.016;19.954;2023-05-07T07:52:02;3.60;;;1.60;;
75810;SDS011;64449;50.016;19.954;2023-05-07T07:54:27;4.70;;;1.80;;
75810;SDS011;64449;50.016;19.954;2023-05-07T07:56:54;3.50;;;1.60;;
75810;SDS011;64449;50.016;19.954;2023-05-07T07:59:19;6.10;;;3.00;;
75810;SDS011;64449;50.016;19.954;2023-05-07T08:01:45;6.10;;;3.00;;
75810;SDS011;64449;50.016;19.954;2023-05-07T08:04:10;4.90;;;3.60;;
75810;SDS011;64449;50.016;19.954;2023-05-07T08:06:36;9.20;;;5.60;;
75810;SDS011;64449;50.016;19.954;2023-05-07T08:09:02;9.80;;;6.40;;
75810;SDS011;64449;50.016;19.954;2023-05-07T08:11:28;6.80;;;3.30;;
75810;SDS011;64449;50.016;19.954;2023-05-07T08:13:53;4.90;;;2.50;;
75810;SDS011;64449;50.016;19.954;2023-05-07T08:16:20;5.50;;;2.90;;
75810;SDS011;64449;50.016;19.954;2023-05-07T08:18:45;6.80;;;3.40;;
75810;SDS011;64449;50.016;19.954;2023-05-07T08:21:11;5.00;;;2.60;;
75810;SDS011;64449;50.016;19.954;2023-05-07T08:23:36;4.40;;;2.60;;
75810;SDS011;64449;50.016;19.954;2023-05-07T08:26:01;5.10;;;2.30;;
75810;SDS011;64449;50.016;19.954;2023-05-07T08:28:27;5.20;;;3.00;;
75810;SDS011;64449;50.016;19.954;2023-05-07T08:30:52;8.40;;;4.90;;
75810;SDS011;64449;50.016;19.954;2023-05-07T08:33:18;5.90;;;3.50;;
75810;SDS011;64449;50.016;19.954;2023-05-07T08:35:43;7.20;;;4.00;;
75810;SDS011;64449;50.016;19.954;2023-05-07T08:38:09;12.50;;;7.30;;
75810;SDS011;64449;50.016;19.954;2023-05-07T08:40:37;12.50;;;6.90;;
75810;SDS011;64449;50.016;19.954;2023-05-07T08:43:07;9.50;;;5.10;;
75810;SDS011;64449;50.016;19.954;2023-05-07T08:45:34;4.90;;;3.70;;
75810;SDS011;64449;50.016;19.954;2023-05-07T08:48:01;5.50;;;3.30;;
75810;SDS011;64449;50.016;19.954;2023-05-07T08:50:30;4.10;;;2.50;;
75810;SDS011;64449;50.016;19.954;2023-05-07T08:52:55;7.30;;;4.70;;
75810;SDS011;64449;50.016;19.954;2023-05-07T08:55:22;7.40;;;4.90;;
75810;SDS011;64449;50.016;19.954;2023-05-07T08:57:50;5.80;;;3.10;;
75810;SDS011;64449;50.016;19.954;2023-05-07T09:00:17;4.70;;;2.80;;
75810;SDS011;64449;50.016;19.954;2023-05-07T09:02:43;6.10;;;3.20;;
75810;SDS011;64449;50.016;19.954;2023-05-07T09:05:08;11.90;;;7.40;;
75810;SDS011;64449;50.016;19.954;2023-05-07T09:07:34;8.80;;;6.20;;
75810;SDS011;64449;50.016;19.954;2023-05-07T09:10:03;9.80;;;6.70;;
75810;SDS011;64449;50.016;19.954;2023-05-07T09:12:29;5.10;;;3.40;;
75810;SDS011;64449;50.016;19.954;2023-05-07T09:14:55;5.10;;;3.00;;
75810;SDS011;64449;50.016;19.954;2023-05-07T09:17:21;4.60;;;3.00;;
75810;SDS011;64449;50.016;19.954;2023-05-07T09:19:47;5.90;;;3.50;;
75810;SDS011;64449;50.016;19.954;2023-05-07T09:22:12;4.30;;;2.50;;
75810;SDS011;64449;50.016;19.954;2023-05-07T09:24:38;4.30;;;2.60;;
75810;SDS011;64449;50.016;19.954;2023-05-07T09:27:04;3.90;;;2.20;;
75810;SDS011;64449;50.016;19.954;2023-05-07T09:29:30;2.90;;;1.90;;
75810;SDS011;64449;50.016;19.954;2023-05-07T09:32:05;3.60;;;2.30;;
75810;SDS011;64449;50.016;19.954;2023-05-07T09:34:32;4.50;;;2.00;;
75810;SDS011;64449;50.016;19.954;2023-05-07T09:36:58;3.40;;;2.30;;
75810;SDS011;64449;50.016;19.954;2023-05-07T09:39:26;5.60;;;2.30;;
75810;SDS011;64449;50.016;19.954;2023-05-07T09:41:51;5.10;;;3.00;;
75810;SDS011;64449;50.016;19.954;2023-05-07T09:44:19;222.80;;;31.60;;
75810;SDS011;64449;50.016;19.954;2023-05-07T09:46:46;9.00;;;3.10;;
75810;SDS011;64449;50.016;19.954;2023-05-07T09:49:18;9.20;;;5.30;;
75810;SDS011;64449;50.016;19.954;2023-05-07T09:51:48;10.90;;;7.30;;
75810;SDS011;64449;50.016;19.954;2023-05-07T09:54:15;8.80;;;5.70;;
75810;SDS011;64449;50.016;19.954;2023-05-07T09:56:42;8.30;;;4.80;;
75810;SDS011;64449;50.016;19.954;2023-05-07T09:59:12;9.40;;;5.80;;
75810;SDS011;64449;50.016;19.954;2023-05-07T10:01:38;6.70;;;4.30;;
75810;SDS011;64449;50.016;19.954;2023-05-07T10:04:06;12.40;;;7.50;;
75810;SDS011;64449;50.016;19.954;2023-05-07T10:06:34;4.00;;;2.50;;
75810;SDS011;64449;50.016;19.954;2023-05-07T10:09:00;7.40;;;4.10;;
75810;SDS011;64449;50.016;19.954;2023-05-07T10:11:27;9.50;;;6.60;;
75810;SDS011;64449;50.016;19.954;2023-05-07T10:13:53;11.40;;;6.50;;
75810;SDS011;64449;50.016;19.954;2023-05-07T10:16:19;7.90;;;3.20;;
75810;SDS011;64449;50.016;19.954;2023-05-07T10:18:46;3.80;;;2.20;;
75810;SDS011;64449;50.016;19.954;2023-05-07T10:21:18;5.80;;;3.60;;
75810;SDS011;64449;50.016;19.954;2023-05-07T10:23:45;4.20;;;2.60;;
75810;SDS011;64449;50.016;19.954;2023-05-07T10:26:15;5.30;;;3.10;;
75810;SDS011;64449;50.016;19.954;2023-05-07T10:28:42;4.50;;;2.30;;
75810;SDS011;64449;50.016;19.954;2023-05-07T10:31:15;4.80;;;3.00;;
75810;SDS011;64449;50.016;19.954;2023-05-07T10:33:42;4.80;;;2.50;;
75810;SDS011;64449;50.016;19.954;2023-05-07T10:36:11;3.50;;;2.10;;
75810;SDS011;64449;50.016;19.954;2023-05-07T10:38:36;3.90;;;2.20;;
75810;SDS011;64449;50.016;19.954;2023-05-07T10:41:03;3.80;;;2.50;;
75810;SDS011;64449;50.016;19.954;2023-05-07T10:43:42;5.10;;;2.70;;
75810;SDS011;64449;50.016;19.954;2023-05-07T10:49:25;4.40;;;2.10;;
75810;SDS011;64449;50.016;19.954;2023-05-07T10:51:25;4.30;;;2.30;;
75810;SDS011;64449;50.016;19.954;2023-05-07T10:56:42;4.80;;;2.60;;
75810;SDS011;64449;50.016;19.954;2023-05-07T11:04:17;3.40;;;1.90;;
75810;SDS011;64449;50.016;19.954;2023-05-07T11:12:17;3.90;;;2.30;;
75810;SDS011;64449;50.016;19.954;2023-05-07T11:15:03;4.10;;;2.30;;
75810;SDS011;64449;50.016;19.954;2023-05-07T11:17:52;3.80;;;2.30;;
75810;SDS011;64449;50.016;19.954;2023-05-07T11:25:59;4.80;;;2.50;;
75810;SDS011;64449;50.016;19.954;2023-05-07T11:28:27;4.80;;;2.70;;
75810;SDS011;64449;50.016;19.954;2023-05-07T11:30:53;3.50;;;2.20;;
75810;SDS011;64449;50.016;19.954;2023-05-07T11:33:19;3.10;;;1.80;;
75810;SDS011;64449;50.016;19.954;2023-05-07T11:35:44;4.20;;;2.10;;
75810;SDS011;64449;50.016;19.954;2023-05-07T11:38:11;3.10;;;2.00;;
75810;SDS011;64449;50.016;19.954;2023-05-07T11:43:16;4.10;;;2.30;;
75810;SDS011;64449;50.016;19.954;2023-05-07T11:45:42;3.30;;;2.10;;
75810;SDS011;64449;50.016;19.954;2023-05-07T11:48:07;4.80;;;2.30;;
75810;SDS011;64449;50.016;19.954;2023-05-07T11:50:33;3.90;;;2.00;;
75810;SDS011;64449;50.016;19.954;2023-05-07T11:52:58;3.60;;;2.10;;
75810;SDS011;64449;50.016;19.954;2023-05-07T11:55:24;4.20;;;2.30;;
75810;SDS011;64449;50.016;19.954;2023-05-07T11:57:51;3.50;;;2.20;;
75810;SDS011;64449;50.016;19.954;2023-05-07T12:00:16;3.70;;;1.80;;
75810;SDS011;64449;50.016;19.954;2023-05-07T12:02:43;3.40;;;1.90;;
75810;SDS011;64449;50.016;19.954;2023-05-07T12:05:10;3.50;;;2.10;;
75810;SDS011;64449;50.016;19.954;2023-05-07T12:07:36;4.40;;;2.90;;
75810;SDS011;64449;50.016;19.954;2023-05-07T12:10:07;3.50;;;2.00;;
75810;SDS011;64449;50.016;19.954;2023-05-07T12:12:40;4.00;;;1.90;;
75810;SDS011;64449;50.016;19.954;2023-05-07T12:15:07;6.20;;;1.90;;
75810;SDS011;64449;50.016;19.954;2023-05-07T12:17:33;3.40;;;1.80;;
75810;SDS011;64449;50.016;19.954;2023-05-07T12:19:59;2.90;;;1.70;;
75810;SDS011;64449;50.016;19.954;2023-05-07T12:22:25;3.40;;;1.70;;
75810;SDS011;64449;50.016;19.954;2023-05-07T12:24:58;4.30;;;1.90;;
75810;SDS011;64449;50.016;19.954;2023-05-07T12:27:24;6.40;;;1.70;;
75810;SDS011;64449;50.016;19.954;2023-05-07T12:29:51;3.80;;;1.80;;
75810;SDS011;64449;50.016;19.954;2023-05-07T12:32:16;2.90;;;1.80;;
75810;SDS011;64449;50.016;19.954;2023-05-07T12:34:44;3.20;;;1.70;;
75810;SDS011;64449;50.016;19.954;2023-05-07T12:37:10;3.00;;;1.60;;
75810;SDS011;64449;50.016;19.954;2023-05-07T12:39:36;3.40;;;1.60;;
75810;SDS011;64449;50.016;19.954;2023-05-07T12:42:01;3.30;;;1.80;;
75810;SDS011;64449;50.016;19.954;2023-05-07T12:44:30;3.30;;;1.80;;
75810;SDS011;64449;50.016;19.954;2023-05-07T12:46:57;3.60;;;2.00;;
75810;SDS011;64449;50.016;19.954;2023-05-07T12:49:23;2.80;;;1.70;;
75810;SDS011;64449;50.016;19.954;2023-05-07T12:51:50;2.90;;;1.60;;
75810;SDS011;64449;50.016;19.954;2023-05-07T12:54:32;3.10;;;1.80;;
75810;SDS011;64449;50.016;19.954;2023-05-07T12:57:05;4.20;;;2.10;;
75810;SDS011;64449;50.016;19.954;2023-05-07T13:02:05;4.20;;;2.10;;
75810;SDS011;64449;50.016;19.954;2023-05-07T13:04:30;3.40;;;2.00;;
75810;SDS011;64449;50.016;19.954;2023-05-07T13:06:56;3.70;;;1.90;;
75810;SDS011;64449;50.016;19.954;2023-05-07T13:09:21;3.20;;;2.00;;
75810;SDS011;64449;50.016;19.954;2023-05-07T13:11:47;3.60;;;1.70;;
75810;SDS011;64449;50.016;19.954;2023-05-07T13:14:12;3.30;;;2.00;;
75810;SDS011;64449;50.016;19.954;2023-05-07T13:16:37;3.50;;;1.90;;
75810;SDS011;64449;50.016;19.954;2023-05-07T13:19:03;4.20;;;1.80;;
75810;SDS011;64449;50.016;19.954;2023-05-07T13:21:29;3.40;;;2.00;;
75810;SDS011;64449;50.016;19.954;2023-05-07T13:23:56;3.20;;;1.90;;
75810;SDS011;64449;50.016;19.954;2023-05-07T13:26:23;3.00;;;1.90;;
75810;SDS011;64449;50.016;19.954;2023-05-07T13:28:48;3.30;;;1.70;;
75810;SDS011;64449;50.016;19.954;2023-05-07T13:31:14;3.30;;;2.10;;
75810;SDS011;64449;50.016;19.954;2023-05-07T13:33:39;3.40;;;1.90;;
75810;SDS011;64449;50.016;19.954;2023-05-07T13:36:05;3.50;;;1.90;;
75810;SDS011;64449;50.016;19.954;2023-05-07T13:38:31;3.50;;;2.10;;
75810;SDS011;64449;50.016;19.954;2023-05-07T13:40:57;3.80;;;1.80;;
75810;SDS011;64449;50.016;19.954;2023-05-07T13:43:24;3.90;;;1.80;;
75810;SDS011;64449;50.016;19.954;2023-05-07T13:45:50;3.20;;;2.20;;
75810;SDS011;64449;50.016;19.954;2023-05-07T13:48:15;3.90;;;2.20;;
75810;SDS011;64449;50.016;19.954;2023-05-07T13:50:40;4.10;;;2.30;;
75810;SDS011;64449;50.016;19.954;2023-05-07T13:53:07;3.70;;;2.50;;
75810;SDS011;64449;50.016;19.954;2023-05-07T13:55:33;3.80;;;2.20;;
75810;SDS011;64449;50.016;19.954;2023-05-07T13:57:59;3.80;;;2.20;;
75810;SDS011;64449;50.016;19.954;2023-05-07T14:00:26;4.10;;;2.40;;
75810;SDS011;64449;50.016;19.954;2023-05-07T14:02:53;4.00;;;2.20;;
75810;SDS011;64449;50.016;19.954;2023-05-07T14:05:19;3.20;;;2.00;;
75810;SDS011;64449;50.016;19.954;2023-05-07T14:07:45;4.50;;;3.20;;
75810;SDS011;64449;50.016;19.954;2023-05-07T14:10:12;4.50;;;2.50;;
75810;SDS011;64449;50.016;19.954;2023-05-07T14:12:38;4.30;;;2.40;;
75810;SDS011;64449;50.016;19.954;2023-05-07T14:15:03;5.10;;;3.00;;
75810;SDS011;64449;50.016;19.954;2023-05-07T14:17:29;6.30;;;3.40;;
75810;SDS011;64449;50.016;19.954;2023-05-07T14:19:55;4.40;;;2.80;;
75810;SDS011;64449;50.016;19.954;2023-05-07T14:22:22;4.30;;;2.50;;
75810;SDS011;64449;50.016;19.954;2023-05-07T14:24:48;5.20;;;2.70;;
75810;SDS011;64449;50.016;19.954;2023-05-07T14:27:14;4.50;;;2.60;;
75810;SDS011;64449;50.016;19.954;2023-05-07T14:29:40;4.10;;;2.70;;
75810;SDS011;64449;50.016;19.954;2023-05-07T14:32:06;3.80;;;2.60;;
75810;SDS011;64449;50.016;19.954;2023-05-07T14:34:31;4.20;;;2.90;;
75810;SDS011;64449;50.016;19.954;2023-05-07T14:36:57;5.80;;;3.10;;
75810;SDS011;64449;50.016;19.954;2023-05-07T14:39:23;5.20;;;3.10;;
75810;SDS011;64449;50.016;19.954;2023-05-07T14:41:48;5.50;;;3.60;;
75810;SDS011;64449;50.016;19.954;2023-05-07T14:44:14;4.90;;;2.80;;
75810;SDS011;64449;50.016;19.954;2023-05-07T14:46:39;5.40;;;3.10;;
75810;SDS011;64449;50.016;19.954;2023-05-07T14:49:04;5.50;;;3.10;;
75810;SDS011;64449;50.016;19.954;2023-05-07T14:51:31;4.90;;;3.20;;